Terminal Aerodrome Forecast
Issued by NWS Bismarck, ND

Home | Current Version | Previous Version | Text Only | Print | Product List | Glossary On
Versions: 1 2 3 4 5 6 7 8 9 10 11 12 13 14 15 16 17
000
FTUS43 KBIS 161700 RRA
TAFBIS
TAF
KBIS 161743Z 1618/1718 05014G21KT P6SM OVC018
      TEMPO 1618/1621 6SM -SHSN
     FM170000 05010KT P6SM BKN025
     FM170900 06005KT 6SM BR BKN020
     FM171400 12007KT P6SM BKN030=

USA.gov is the U.S. government's official web portal to all federal, state and local government web resources and services.